ケープタウン国際空港の過去48時間の天気

ケープタウン国際空港 (Cape Town, Cape Town International Airport)

現在時刻: 5/26 04:03 SAST (5/26 02:03 UTC) 以下の時間は現地時間です。

過去48時間のMETAR気象情報
時間 風向 風速(m/s) 視程 気温(℃) 湿度(%) 気圧(hPa) 天気現象
26 03:02 北西 2 500m 16 94 1022
26 02:00 北西 3 4500m 16 94 1022 もや
26 01:00 北西 3 10km以上 16 100 1022
26 00:00 北北西 4 10km以上 16 100 1021
25 23:00 北北西 6 6000m 16 94 1021 弱い雨
25 22:00 5 10km以上 16 94 1021
FACT 260102Z 32004KT 0500 R01/0900 FG BKN002 OVC008 16/15 Q1022 NOSIG
FACT 260000Z 31006KT 4500 BR BKN003 OVC017 16/15 Q1022 TEMPO 2000
FACT 252300Z 32005KT 9999 SCT005 OVC020 16/16 Q1022 TEMPO BKN005
FACT 252200Z 33007KT 9999 SCT005 OVC022 16/16 Q1021 TEMPO BKN005
FACT 252100Z 33011KT 6000 -RA SCT006 OVC033 16/15 Q1021 TEMPO BKN006
FACT 252000Z 35009KT 9999 FEW006 SCT018 BKN045 16/15 Q1021 NOSIG